Time;durP1;ratioP1;P1;durP2;ratioP2;P2;SDS_P1;SDS_P2;PMS_P1;PMS_P2;Temp;Humidity;BMP_temperature;BMP_pressure;BME280_temperature;BME280_humidity;BME280_pressure;Samples;Min_cycle;Max_cycle;Signal;HPM_P1;HPM_P2
2022/02/04 00:08:46;;;;;;;;;13.75;11.75;;;;;8.97;72.52;101096.09;5106163;27;45216;-80
2022/02/04 00:24:35;;;;;;;;;16.25;15.50;;;;;9.30;72.52;101142.19;5106310;27;45158;-86
2022/02/04 00:27:08;;;;;;;;;18.25;16.00;;;;;9.26;72.41;101126.25;5121351;27;45082;-81
2022/02/04 00:29:45;;;;;;;;;12.00;11.50;;;;;9.15;72.33;101103.88;5104935;27;45310;-85
2022/02/04 00:32:11;;;;;;;;;16.00;14.75;;;;;9.41;72.43;101149.66;5111860;27;45923;-85
2022/02/04 00:34:44;;;;;;;;;14.00;12.25;;;;;9.27;72.49;101121.09;5094393;27;45660;-82
2022/02/04 00:39:47;;;;;;;;;19.50;16.75;;;;;9.16;72.34;101105.66;5101293;27;45172;-84
2022/02/04 00:42:17;;;;;;;;;16.25;14.75;;;;;9.25;72.45;101125.34;5112454;27;45396;-86
2022/02/04 00:44:43;;;;;;;;;16.50;14.00;;;;;9.30;72.66;101136.94;5132743;27;45214;-83
2022/02/04 00:47:22;;;;;;;;;17.00;16.00;;;;;9.19;72.43;101116.31;5113714;27;45042;-85
2022/02/04 00:50:02;;;;;;;;;16.50;15.00;;;;;9.07;72.48;101095.69;5110564;27;45489;-83
2022/02/04 00:52:41;;;;;;;;;15.50;14.75;;;;;8.79;72.56;101060.31;5087683;27;45456;-85
2022/02/04 01:27:20;;;;;;;;;14.75;13.50;;;;;8.79;73.74;101081.28;5108430;27;45517;-79
2022/02/04 01:29:59;;;;;;;;;16.25;15.75;;;;;8.97;73.52;101117.06;5095807;27;45203;-79
2022/02/04 01:32:25;;;;;;;;;16.25;14.50;;;;;8.99;73.43;101128.50;5109140;27;45389;-78
2022/02/04 01:34:50;;;;;;;;;14.00;13.25;;;;;8.92;73.85;101115.94;5097809;27;45343;-79
2022/02/04 01:37:15;;;;;;;;;15.00;14.50;;;;;8.94;73.90;101119.53;5105657;27;44960;-79
2022/02/04 01:39:41;;;;;;;;;15.50;13.50;;;;;8.88;73.76;101120.13;5090130;27;45632;-79
2022/02/04 01:42:07;;;;;;;;;15.25;14.25;;;;;8.86;73.81;101105.16;5101259;27;45362;-78
2022/02/04 01:44:32;;;;;;;;;14.50;14.00;;;;;8.88;73.79;101098.28;5098120;27;45335;-79
2022/02/04 01:46:58;;;;;;;;;12.75;11.50;;;;;8.95;73.76;101101.22;5095686;27;45213;-78
2022/02/04 01:49:24;;;;;;;;;15.75;14.75;;;;;9.10;73.64;101129.00;5106943;27;45185;-79
2022/02/04 01:51:50;;;;;;;;;9.75;9.75;;;;;9.09;73.70;101127.19;5080123;27;45387;-78
2022/02/04 01:54:16;;;;;;;;;16.75;16.50;;;;;9.06;73.95;101125.31;5103785;27;45380;-79
2022/02/04 01:56:41;;;;;;;;;16.25;16.25;;;;;8.81;73.72;101083.06;5090068;27;45079;-78
2022/02/04 01:59:06;;;;;;;;;16.50;15.75;;;;;8.99;73.70;101113.66;5087914;27;45448;-79
2022/02/04 02:01:32;;;;;;;;;21.25;19.00;;;;;9.05;73.92;101119.19;5079880;27;45259;-79
2022/02/04 02:03:59;;;;;;;;;16.50;15.75;;;;;8.94;73.78;101107.31;5087604;27;45812;-79
2022/02/04 02:06:55;;;;;;;;;16.75;14.00;;;;;9.01;74.00;101122.50;5091006;27;45727;-79
2022/02/04 02:09:25;;;;;;;;;21.75;19.75;;;;;9.01;74.17;101124.22;5076928;27;45963;-78
2022/02/04 02:11:55;;;;;;;;;16.50;15.25;;;;;8.86;73.77;101102.53;5101061;27;45475;-79
2022/02/04 02:14:24;;;;;;;;;16.00;15.00;;;;;8.68;74.39;101085.13;5100737;27;46261;-79
2022/02/04 02:32:58;;;;;;;;;17.50;16.50;;;;;8.90;74.37;101123.72;5088370;27;45127;-79
2022/02/04 02:37:23;;;;;;;;;21.00;17.75;;;;;8.93;75.38;101074.06;5102148;27;45108;-78
2022/02/04 02:49:19;;;;;;;;;13.00;11.50;;;;;8.79;75.36;101068.16;5092075;27;45689;-79
2022/02/04 02:51:56;;;;;;;;;17.50;15.25;;;;;8.82;75.24;101063.88;5088358;27;45177;-79
2022/02/04 02:57:37;;;;;;;;;12.25;9.75;;;;;8.97;75.45;101089.09;5106777;27;45201;-79
2022/02/04 03:00:08;;;;;;;;;14.75;13.00;;;;;8.92;75.22;101069.66;5088372;27;45505;-79
2022/02/04 03:02:34;;;;;;;;;10.00;9.50;;;;;8.88;75.39;101057.22;5099937;27;45240;-79
2022/02/04 03:05:00;;;;;;;;;10.50;10.50;;;;;9.10;74.89;101084.41;5103371;27;45185;-78
2022/02/04 03:07:25;;;;;;;;;11.00;11.00;;;;;8.87;75.11;101052.81;5101710;27;45290;-79
2022/02/04 03:09:50;;;;;;;;;15.75;13.00;;;;;9.01;75.07;101075.31;5107398;27;44936;-79
2022/02/04 03:12:16;;;;;;;;;14.00;12.00;;;;;8.89;74.75;101050.25;5097756;27;45008;-78
2022/02/04 03:14:41;;;;;;;;;13.25;11.25;;;;;8.97;75.03;101062.91;5102639;27;45184;-79
2022/02/04 03:17:10;;;;;;;;;14.25;13.25;;;;;8.72;75.04;101024.19;5090747;27;45876;-78
2022/02/04 03:19:36;;;;;;;;;16.00;13.50;;;;;9.02;75.02;101079.72;5090962;27;45694;-79
2022/02/04 03:22:06;;;;;;;;;17.50;17.25;;;;;8.99;75.10;101076.06;5108568;27;45353;-79
2022/02/04 03:24:33;;;;;;;;;22.00;16.50;;;;;8.91;75.61;101062.59;5103937;27;45283;-79
2022/02/04 03:27:03;;;;;;;;;17.75;15.00;;;;;8.77;75.35;101025.28;5104734;27;45794;-78
2022/02/04 03:29:35;;;;;;;;;18.25;17.00;;;;;9.01;75.07;101063.91;5107569;27;45562;-79
2022/02/04 03:32:06;;;;;;;;;15.00;14.50;;;;;8.95;75.13;101048.81;5104651;27;45248;-79
2022/02/04 03:34:31;;;;;;;;;12.75;11.50;;;;;8.78;75.03;101027.06;5088882;27;45700;-79
2022/02/04 03:36:56;;;;;;;;;15.75;14.00;;;;;8.81;75.29;101038.50;5092097;27;46096;-79
2022/02/04 03:39:22;;;;;;;;;15.25;13.75;;;;;8.92;75.39;101053.91;5105683;27;45258;-79
2022/02/04 03:41:47;;;;;;;;;16.00;15.25;;;;;8.77;75.30;101016.53;5089368;27;45369;-79
2022/02/04 03:44:12;;;;;;;;;20.25;15.50;;;;;8.97;75.34;101056.75;5108710;27;45038;-78
2022/02/04 03:46:38;;;;;;;;;15.25;13.75;;;;;8.94;75.42;101051.38;5090914;27;45900;-79
2022/02/04 03:49:03;;;;;;;;;15.25;14.25;;;;;8.98;75.16;101066.41;5107272;27;45187;-78
2022/02/04 03:51:29;;;;;;;;;14.25;14.00;;;;;8.88;75.05;101048.47;5094794;27;45107;-78
2022/02/04 03:53:54;;;;;;;;;15.50;14.25;;;;;8.78;75.24;101036.66;5091459;27;45137;-79
2022/02/04 03:56:20;;;;;;;;;12.75;11.50;;;;;8.93;75.45;101060.06;5100965;27;46053;-80
2022/02/04 03:58:45;;;;;;;;;17.75;14.50;;;;;8.85;75.44;101045.69;5097338;27;45306;-78
2022/02/04 04:01:11;;;;;;;;;16.75;14.50;;;;;8.82;75.44;101040.28;5098132;27;45039;-79
2022/02/04 04:03:36;;;;;;;;;15.75;15.00;;;;;8.74;75.55;101021.63;5095551;27;45181;-79
2022/02/04 04:06:02;;;;;;;;;16.50;15.75;;;;;8.77;75.49;101027.91;5093989;27;46103;-79
2022/02/04 04:08:27;;;;;;;;;19.50;15.25;;;;;8.63;75.87;101002.78;5091974;27;45290;-79
2022/02/04 04:10:53;;;;;;;;;17.75;15.25;;;;;8.73;75.77;101018.09;5092018;27;45205;-79
2022/02/04 04:13:20;;;;;;;;;14.75;14.75;;;;;8.81;75.50;101028.03;5090741;27;45285;-79
2022/02/04 04:15:46;;;;;;;;;18.75;17.25;;;;;8.76;75.73;101030.44;5105334;27;45384;-79
2022/02/04 04:18:14;;;;;;;;;21.00;18.25;;;;;8.91;75.97;101061.69;5096908;27;45310;-79
2022/02/04 04:20:42;;;;;;;;;20.25;16.25;;;;;8.88;75.82;101056.34;5107579;27;45121;-78
2022/02/04 04:23:07;;;;;;;;;14.75;13.75;;;;;8.53;76.18;101001.47;5091729;28;45091;-79
2022/02/04 04:25:33;;;;;;;;;21.00;18.25;;;;;8.67;76.04;101028.31;5104264;27;45572;-79
2022/02/04 04:27:58;;;;;;;;;26.50;23.25;;;;;8.76;76.43;101033.94;5094318;27;45224;-79
2022/02/04 04:30:24;;;;;;;;;27.25;22.25;;;;;8.72;76.17;101023.28;5105256;27;45210;-79
2022/02/04 04:32:52;;;;;;;;;21.25;17.50;;;;;8.66;76.33;101008.16;5100216;27;45329;-79
2022/02/04 04:35:19;;;;;;;;;21.50;20.25;;;;;8.78;76.01;101028.81;5101035;27;45572;-79
2022/02/04 04:37:55;;;;;;;;;21.25;18.75;;;;;8.73;76.71;101005.00;5100538;27;45466;-79
2022/02/04 04:43:16;;;;;;;;;21.50;20.50;;;;;8.78;76.51;101019.22;5110139;27;45005;-79
2022/02/04 05:29:06;;;;;;;;;26.75;22.00;;;;;8.79;76.51;100988.66;5108868;27;45565;-82
2022/02/04 05:31:32;;;;;;;;;23.75;21.00;;;;;8.99;76.98;101023.63;5106249;27;45389;-79
2022/02/04 05:33:58;;;;;;;;;25.50;21.00;;;;;8.87;76.60;100994.25;5106696;27;45384;-79
2022/02/04 05:36:23;;;;;;;;;25.50;20.50;;;;;8.91;76.69;101004.03;5107410;27;45273;-79
2022/02/04 05:38:51;;;;;;;;;21.75;18.25;;;;;8.51;76.73;100940.22;5109443;27;45418;-79
2022/02/04 05:41:22;;;;;;;;;20.25;17.25;;;;;8.80;76.69;100972.09;5107081;27;45551;-79
2022/02/04 05:43:48;;;;;;;;;21.50;18.50;;;;;8.87;76.21;100991.63;5108001;27;45202;-79
2022/02/04 05:46:19;;;;;;;;;25.25;19.25;;;;;8.88;76.68;100982.94;5092216;27;45400;-78
2022/02/04 05:48:49;;;;;;;;;21.00;18.50;;;;;8.94;76.35;100991.97;5098645;27;45463;-79
2022/02/04 05:54:03;;;;;;;;;22.25;19.75;;;;;8.79;76.47;100965.06;5096751;27;45114;-79
2022/02/04 05:56:35;;;;;;;;;18.50;16.75;;;;;8.90;76.29;100983.91;5088750;27;45415;-79
2022/02/04 05:59:09;;;;;;;;;27.25;20.75;;;;;8.82;76.67;100966.91;5091876;27;45382;-79
2022/02/04 06:01:46;;;;;;;;;21.25;20.75;;;;;8.98;76.50;100985.16;5084945;27;45964;-79
2022/02/04 06:22:03;;;;;;;;;21.00;19.50;;;;;9.01;76.46;100985.25;5087650;27;45030;-79
2022/02/04 06:23:23;;;;;;;;;22.00;19.50;;;;;8.85;76.12;100962.72;5088293;28;45468;-79
2022/02/04 06:25:48;;;;;;;;;23.25;20.25;;;;;8.96;76.05;100982.44;5096838;27;45386;-79
2022/02/04 06:28:17;;;;;;;;;19.75;17.50;;;;;8.77;76.08;100948.41;5099295;27;45893;-79
2022/02/04 06:30:45;;;;;;;;;27.75;22.50;;;;;9.04;76.40;101002.03;5086875;27;45811;-80
2022/02/04 06:33:11;;;;;;;;;24.50;22.25;;;;;8.92;76.57;100985.78;5082310;27;45925;-79
2022/02/04 06:35:36;;;;;;;;;20.50;19.00;;;;;8.70;76.39;100936.72;5098242;27;45678;-79
2022/02/04 06:38:02;;;;;;;;;24.00;21.75;;;;;8.82;76.43;100959.97;5086970;27;45520;-79
2022/02/04 06:40:29;;;;;;;;;19.25;17.75;;;;;9.04;76.34;100988.94;5083043;27;45463;-78
2022/02/04 06:42:55;;;;;;;;;24.50;22.25;;;;;8.86;76.30;100955.75;5086599;27;45520;-79
2022/02/04 06:45:21;;;;;;;;;26.00;24.75;;;;;8.98;76.28;100982.53;5074781;27;45551;-80
2022/02/04 06:47:47;;;;;;;;;21.00;16.00;;;;;8.79;76.40;100957.22;5090089;27;45709;-79
2022/02/04 06:50:14;;;;;;;;;21.50;20.25;;;;;8.93;76.69;100977.06;5089639;27;45588;-80
2022/02/04 06:52:40;;;;;;;;;20.25;19.25;;;;;8.90;76.54;100961.19;5094459;27;45907;-80
2022/02/04 06:55:06;;;;;;;;;20.00;16.50;;;;;8.94;76.74;100971.00;5103995;27;45530;-79
2022/02/04 06:57:31;;;;;;;;;17.50;17.25;;;;;8.90;76.57;100955.06;5069027;27;45411;-79
2022/02/04 06:59:58;;;;;;;;;21.50;19.50;;;;;8.97;76.65;100967.63;5078497;27;45538;-80
2022/02/04 07:02:26;;;;;;;;;18.25;17.50;;;;;8.83;76.49;100945.16;5089939;27;46030;-79
2022/02/04 07:04:52;;;;;;;;;21.25;20.25;;;;;8.74;77.43;100924.66;5089816;27;45710;-79
2022/02/04 07:07:18;;;;;;;;;21.25;20.75;;;;;9.03;77.55;100963.53;5087788;27;45455;-80
2022/02/04 07:09:52;;;;;;;;;21.50;19.50;;;;;9.05;77.05;100974.09;5091962;27;45739;-80
2022/02/04 07:12:33;;;;;;;;;20.50;19.75;;;;;8.98;77.08;100954.59;5085534;27;45567;-83
2022/02/04 07:17:33;;;;;;;;;20.33;19.67;;;;;9.04;77.03;100975.81;5101058;27;45044;-79
2022/02/04 07:20:00;;;;;;;;;18.25;16.00;;;;;8.92;77.25;100954.31;5092660;27;46960;-79
2022/02/04 07:22:31;;;;;;;;;17.50;15.00;;;;;9.01;77.39;100974.78;5099402;27;45475;-78
2022/02/04 07:24:59;;;;;;;;;17.50;17.00;;;;;9.14;80.95;100986.72;5093313;27;45771;-78
2022/02/04 07:27:29;;;;;;;;;18.25;17.75;;;;;8.96;78.29;100955.31;5103041;27;45299;-78
2022/02/04 07:29:55;;;;;;;;;21.00;20.25;;;;;8.90;77.83;100940.22;5090103;27;46041;-80
2022/02/04 07:42:54;;;;;;;;;14.75;13.75;;;;;9.16;77.49;100978.09;5108064;27;45495;-78
2022/02/04 07:45:21;;;;;;;;;18.25;14.75;;;;;9.03;77.33;100949.53;5110103;27;45021;-79
2022/02/04 07:47:47;;;;;;;;;19.00;15.50;;;;;9.00;77.56;100954.63;5096903;27;45802;-78
2022/02/04 07:50:13;;;;;;;;;17.00;17.00;;;;;8.95;78.99;100933.47;5101132;27;45209;-81
2022/02/04 07:52:38;;;;;;;;;18.50;16.75;;;;;9.10;77.93;100972.56;5093311;27;45854;-78
2022/02/04 07:55:05;;;;;;;;;17.00;16.50;;;;;9.05;77.55;100967.13;5109975;27;45373;-79
2022/02/04 07:57:33;;;;;;;;;15.00;14.25;;;;;8.96;77.37;100935.25;5110960;27;45396;-79
2022/02/04 08:00:02;;;;;;;;;15.25;14.00;;;;;9.01;77.28;100940.69;5110848;27;45656;-79
2022/02/04 08:02:28;;;;;;;;;17.00;16.00;;;;;9.14;77.35;100961.38;5106786;27;45251;-79
2022/02/04 08:04:59;;;;;;;;;20.25;19.50;;;;;9.19;77.35;100965.09;5095406;27;45090;-79
2022/02/04 08:07:28;;;;;;;;;10.50;9.25;;;;;9.10;77.53;100954.22;5089733;27;45154;-78
2022/02/04 08:10:25;;;;;;;;;19.00;17.50;;;;;9.08;77.13;100942.78;5077453;27;45670;-79
2022/02/04 08:13:31;;;;;;;;;18.00;16.00;;;;;9.06;77.05;100936.53;5083699;27;45556;-79
2022/02/04 08:15:53;;;;;;;;;19.50;16.75;;;;;9.10;77.25;100941.09;5095791;27;45594;-79
2022/02/04 08:21:14;;;;;;;;;18.00;15.50;;;;;9.01;77.28;100943.31;5106504;27;46025;-78
2022/02/04 08:29:19;;;;;;;;;20.00;17.00;;;;;9.05;77.18;100951.38;5104642;27;47206;-79
2022/02/04 08:32:03;;;;;;;;;14.50;14.00;;;;;9.09;77.21;100949.81;5097930;27;47301;-79
2022/02/04 08:37:30;;;;;;;;;14.25;11.75;;;;;9.03;77.25;100939.06;5093073;27;45395;-78
2022/02/04 08:55:20;;;;;;;;;16.25;15.00;;;;;9.34;76.56;100974.47;5091428;27;45349;-78
2022/02/04 08:58:16;;;;;;;;;16.75;14.50;;;;;9.40;76.54;100986.09;5091655;27;45799;-78
2022/02/04 09:00:44;;;;;;;;;14.00;14.00;;;;;9.29;76.52;100954.19;5091388;27;45539;-78
2022/02/04 09:03:27;;;;;;;;;15.50;15.00;;;;;9.03;76.37;100908.50;5091580;27;46675;-78
2022/02/04 09:06:06;;;;;;;;;15.00;15.00;;;;;9.23;76.67;100940.81;5091440;27;45919;-78
2022/02/04 09:08:33;;;;;;;;;14.75;13.75;;;;;9.17;76.64;100911.72;5091617;27;45830;-78
2022/02/04 09:11:03;;;;;;;;;14.50;14.00;;;;;9.24;76.39;100932.09;5091341;27;45473;-78
2022/02/04 09:19:04;;;;;;;;;14.50;13.75;;;;;9.45;76.44;100939.09;5091431;27;45568;-77
2022/02/04 09:24:22;;;;;;;;;15.00;10.75;;;;;9.45;76.13;100942.59;5074024;27;45810;-77
2022/02/04 09:26:48;;;;;;;;;14.25;12.50;;;;;8.80;75.97;100822.72;5081443;27;45480;-77
2022/02/04 09:29:15;;;;;;;;;14.00;12.25;;;;;8.94;76.34;100839.94;5073918;27;45385;-77
2022/02/04 09:31:40;;;;;;;;;14.75;13.25;;;;;9.03;76.22;100858.69;5097455;27;45536;-78
2022/02/04 09:34:07;;;;;;;;;15.25;14.00;;;;;9.43;76.55;100914.53;5096062;27;46717;-82
2022/02/04 09:36:33;;;;;;;;;18.00;16.75;;;;;9.14;75.84;100859.13;5102480;27;45820;-77
2022/02/04 09:39:03;;;;;;;;;15.00;14.00;;;;;8.96;76.23;100824.25;5097852;27;45401;-78
2022/02/04 09:41:29;;;;;;;;;13.75;13.00;;;;;9.43;75.76;100906.66;5108991;27;45054;-79
2022/02/04 09:43:55;;;;;;;;;16.00;15.50;;;;;9.35;76.04;100894.94;5110232;27;45680;-77
2022/02/04 09:46:20;;;;;;;;;14.00;13.50;;;;;9.00;76.17;100818.31;5109602;27;45110;-77
2022/02/04 09:48:51;;;;;;;;;12.75;12.00;;;;;9.02;76.02;100837.66;5106076;27;45431;-78
2022/02/04 09:51:21;;;;;;;;;13.50;11.25;;;;;9.34;75.86;100880.94;5104518;27;45504;-77
2022/02/04 10:08:05;;;;;;;;;13.50;12.75;;;;;9.50;75.60;100882.47;5085984;28;45316;-78
2022/02/04 10:16:17;;;;;;;;;15.25;11.25;;;;;9.96;75.42;100936.84;5109260;27;45148;-78
2022/02/04 10:18:50;;;;;;;;;16.00;15.75;;;;;10.01;75.02;100930.94;5109073;27;45367;-78
2022/02/04 10:21:16;;;;;;;;;17.50;14.75;;;;;10.08;74.48;100943.44;5109129;27;45092;-78
2022/02/04 10:23:49;;;;;;;;;11.50;10.25;;;;;10.14;74.91;100920.88;5109068;27;45115;-78
2022/02/04 10:26:16;;;;;;;;;15.75;14.50;;;;;9.94;74.78;100873.75;5089699;27;45617;-78
2022/02/04 10:28:42;;;;;;;;;15.00;14.25;;;;;10.15;74.75;100913.09;5089841;27;45467;-78
2022/02/04 10:31:23;;;;;;;;;10.25;10.25;;;;;10.22;74.74;100924.72;5093935;27;45558;-78
2022/02/04 10:34:01;;;;;;;;;17.75;17.00;;;;;10.23;74.77;100924.75;5098520;27;45432;-78
2022/02/04 10:36:58;;;;;;;;;13.75;12.25;;;;;10.01;74.77;100867.00;5098735;27;45600;-77
2022/02/04 10:56:38;;;;;;;;;9.75;9.00;;;;;9.38;74.45;100771.81;5097121;27;45385;-77
2022/02/04 11:04:00;;;;;;;;;9.75;9.75;;;;;9.51;74.92;100802.94;5111060;27;45184;-78
2022/02/04 11:06:49;;;;;;;;;15.25;15.00;;;;;9.75;75.42;100848.53;5111648;27;45440;-77
2022/02/04 11:09:47;;;;;;;;;15.50;14.25;;;;;9.83;75.83;100836.56;5100644;27;46574;-78
2022/02/04 11:43:56;;;;;;;;;6.75;6.00;;;;;10.93;72.56;100883.56;5106447;27;45380;-78
2022/02/04 11:55:21;;;;;;;;;5.75;5.75;;;;;10.88;72.67;100859.72;5091789;27;45508;-78
2022/02/04 11:57:56;;;;;;;;;8.00;8.00;;;;;10.96;72.54;100865.28;5090602;27;45583;-78
2022/02/04 12:00:27;;;;;;;;;9.75;9.75;;;;;10.99;72.45;100854.88;5092651;27;45527;-78
2022/02/04 12:02:54;;;;;;;;;9.00;9.00;;;;;10.84;72.26;100814.06;5092394;27;45381;-78
2022/02/04 12:05:19;;;;;;;;;5.25;5.25;;;;;11.16;72.06;100844.91;5092240;27;46412;-78
2022/02/04 12:07:56;;;;;;;;;11.00;10.67;;;;;11.11;72.06;100823.72;5090444;27;45297;-78
2022/02/04 12:10:24;;;;;;;;;4.00;4.00;;;;;11.34;71.47;100829.75;5092614;27;45773;-79
2022/02/04 12:12:52;;;;;;;;;3.00;3.00;;;;;11.46;71.35;100823.97;5092103;27;45496;-79
2022/02/04 12:15:35;;;;;;;;;5.00;5.00;;;;;11.62;70.83;100814.00;5092074;27;46427;-78
2022/02/04 12:18:02;;;;;;;;;4.00;3.25;;;;;11.74;70.41;100809.97;5092627;27;45479;-80
2022/02/04 12:20:57;;;;;;;;;6.00;5.00;;;;;11.76;70.03;100790.72;5092279;27;45676;-79
2022/02/04 12:23:28;;;;;;;;;3.00;3.00;;;;;12.04;69.44;100804.75;5092167;27;45394;-79
2022/02/04 12:25:55;;;;;;;;;12.25;10.75;;;;;12.20;69.21;100787.63;5091937;27;46412;-79
2022/02/04 12:28:48;;;;;;;;;5.75;5.50;;;;;12.47;68.71;100787.53;5090645;27;46014;-79
2022/02/04 12:31:33;;;;;;;;;2.00;2.00;;;;;12.19;67.93;100733.16;5092615;27;45810;-78
2022/02/04 12:34:14;;;;;;;;;3.75;3.75;;;;;12.10;67.56;100717.97;5092491;27;45441;-78
2022/02/04 12:36:58;;;;;;;;;4.50;4.00;;;;;12.22;67.44;100749.97;5091203;27;45583;-79
2022/02/04 12:39:26;;;;;;;;;3.00;3.00;;;;;12.31;67.12;100766.00;5091920;27;45687;-78
2022/02/04 12:41:58;;;;;;;;;2.00;2.00;;;;;12.36;66.96;100764.41;5091845;27;45582;-78
2022/02/04 12:44:31;;;;;;;;;2.25;2.25;;;;;12.37;66.68;100746.84;5091984;27;45546;-78
2022/02/04 12:47:02;;;;;;;;;4.00;3.00;;;;;12.32;66.46;100728.28;5107809;27;47715;-78
2022/02/04 12:49:33;;;;;;;;;9.75;9.75;;;;;12.54;65.96;100736.75;5091862;27;45914;-79
2022/02/04 12:54:51;;;;;;;;;9.75;8.25;;;;;12.74;66.38;100726.72;5091935;27;45529;-78
2022/02/04 13:07:49;;;;;;;;;5.00;5.00;;;;;13.02;65.16;100725.66;5090956;27;45323;-77
2022/02/04 13:10:22;;;;;;;;;6.75;5.75;;;;;13.61;64.97;100721.78;5091993;27;45484;-78
2022/02/04 13:12:51;;;;;;;;;6.25;6.25;;;;;13.83;64.24;100720.50;5091170;27;45439;-78
2022/02/04 13:15:17;;;;;;;;;7.75;6.75;;;;;13.84;63.82;100708.16;5090534;27;45476;-78
2022/02/04 13:17:42;;;;;;;;;4.00;4.00;;;;;13.80;62.92;100699.31;5091045;27;46202;-78
2022/02/04 13:20:08;;;;;;;;;3.50;3.25;;;;;13.67;62.17;100686.69;5091646;27;45402;-78
2022/02/04 13:22:37;;;;;;;;;4.00;4.00;;;;;13.59;62.50;100683.88;5090860;27;45394;-78
2022/02/04 13:25:17;;;;;;;;;4.25;4.00;;;;;13.73;62.17;100707.06;5091669;27;45283;-78
2022/02/04 13:28:14;;;;;;;;;3.50;3.50;;;;;13.47;62.15;100688.03;5090516;27;45575;-78
2022/02/04 13:31:03;;;;;;;;;4.50;4.00;;;;;13.56;62.38;100704.97;5084848;27;45898;-78
2022/02/04 13:33:28;;;;;;;;;3.75;3.75;;;;;13.59;62.25;100705.00;5091220;27;45678;-78
2022/02/04 13:47:03;;;;;;;;;3.75;3.00;;;;;12.51;62.67;100666.41;5091141;27;45640;-79
2022/02/04 13:53:12;;;;;;;;;3.00;3.00;;;;;12.52;63.24;100712.09;5087276;27;46094;-78
2022/02/04 14:01:24;;;;;;;;;2.00;1.00;;;;;12.33;63.59;100731.81;5099099;27;45521;-78
2022/02/04 14:03:58;;;;;;;;;2.25;2.00;;;;;12.21;64.21;100706.00;5109997;27;45388;-78
2022/02/04 14:06:27;;;;;;;;;2.00;2.00;;;;;12.33;64.43;100716.88;5109457;27;45237;-78
2022/02/04 14:11:31;;;;;;;;;5.25;5.25;;;;;12.27;64.36;100724.63;5108970;27;45478;-79
2022/02/04 14:13:59;;;;;;;;;2.25;2.25;;;;;12.26;64.53;100716.66;5096070;27;46108;-79
2022/02/04 14:16:25;;;;;;;;;5.00;5.00;;;;;12.30;64.76;100723.81;5090440;27;45349;-78
2022/02/04 14:18:51;;;;;;;;;9.25;9.00;;;;;12.13;64.69;100697.00;5090454;27;45631;-78
2022/02/04 14:21:17;;;;;;;;;7.00;7.00;;;;;12.20;64.76;100693.69;5090009;27;46465;-78
2022/02/04 14:23:49;;;;;;;;;5.25;5.00;;;;;12.45;64.54;100720.69;5088648;27;45793;-79
2022/02/04 14:26:24;;;;;;;;;5.00;5.00;;;;;12.43;64.48;100728.56;5090158;27;45511;-78
2022/02/04 14:31:24;;;;;;;;;2.00;2.00;;;;;12.46;64.23;100733.00;5090458;27;45421;-79
2022/02/04 15:03:13;;;;;;;;;1.00;1.00;;;;;11.66;68.08;100756.16;5090208;27;45625;-78
2022/02/04 15:08:26;;;;;;;;;0.00;0.00;;;;;11.33;70.55;100814.81;5088409;27;45564;-78
2022/02/04 15:10:51;;;;;;;;;0.00;0.00;;;;;11.11;70.80;100828.97;5089491;27;45307;-78
2022/02/04 15:13:18;;;;;;;;;1.75;0.00;;;;;11.10;70.16;100857.03;5089613;27;45799;-78
2022/02/04 15:15:44;;;;;;;;;1.00;1.00;;;;;10.95;69.52;100838.09;5089314;27;45351;-78
2022/02/04 15:18:09;;;;;;;;;1.00;1.00;;;;;10.88;69.91;100838.69;5090118;27;45479;-78
2022/02/04 15:20:35;;;;;;;;;1.00;1.00;;;;;10.83;70.67;100835.91;5089295;27;45597;-78
2022/02/04 15:23:01;;;;;;;;;0.00;0.00;;;;;10.97;69.55;100873.22;5089869;27;46130;-79
2022/02/04 15:25:26;;;;;;;;;0.00;0.00;;;;;10.84;69.97;100871.91;5089362;27;45362;-79
2022/02/04 15:28:05;;;;;;;;;1.00;1.00;;;;;11.15;69.87;100887.84;5089353;27;45415;-79
2022/02/04 15:30:35;;;;;;;;;0.00;0.00;;;;;11.06;69.57;100868.28;5105303;27;45445;-78
2022/02/04 15:33:00;;;;;;;;;2.00;1.25;;;;;11.15;69.96;100888.75;5089754;27;45346;-78
2022/02/04 15:35:28;;;;;;;;;0.00;0.00;;;;;11.10;69.22;100882.44;5088960;27;45469;-78
2022/02/04 15:37:53;;;;;;;;;1.75;1.75;;;;;11.24;69.80;100915.38;5089236;27;45650;-78
2022/02/04 15:40:19;;;;;;;;;1.00;1.00;;;;;11.04;70.20;100884.88;5091306;27;45502;-78
2022/02/04 15:42:53;;;;;;;;;1.00;1.00;;;;;11.02;69.48;100895.31;5092452;27;45278;-78
2022/02/04 15:56:06;;;;;;;;;2.00;2.00;;;;;10.67;70.68;100965.03;5108973;27;45091;-79
2022/02/04 16:03:37;;;;;;;;;2.00;0.25;;;;;10.30;69.42;100968.00;5104339;27;45591;-78
2022/02/04 16:06:04;;;;;;;;;0.75;0.75;;;;;10.30;69.46;100986.38;5103846;27;45840;-78
2022/02/04 16:08:30;;;;;;;;;1.00;1.00;;;;;10.10;69.11;100969.78;5094692;27;45452;-79
2022/02/04 16:11:19;;;;;;;;;1.25;1.25;;;;;10.06;69.80;100970.50;5094175;27;45409;-78
2022/02/04 16:13:54;;;;;;;;;1.00;1.00;;;;;10.10;69.46;101003.94;5109583;27;46145;-78
2022/02/04 16:16:34;;;;;;;;;0.00;0.00;;;;;9.95;68.96;101011.16;5113357;27;45090;-78
2022/02/04 16:19:05;;;;;;;;;0.00;0.00;;;;;9.56;68.97;100972.84;5109170;27;45492;-78
2022/02/04 16:21:52;;;;;;;;;0.50;0.50;;;;;9.72;69.75;101026.84;5095716;27;45536;-78
2022/02/04 16:28:38;;;;;;;;;1.25;1.25;;;;;9.48;70.10;101037.19;5084375;27;45367;-77
2022/02/04 16:29:53;;;;;;;;;1.75;1.75;;;;;9.16;69.87;101001.69;5100795;27;45493;-84
2022/02/04 16:32:19;;;;;;;;;1.00;1.00;;;;;9.09;69.68;101004.88;5108974;27;44937;-78
2022/02/04 16:34:52;;;;;;;;;2.00;2.00;;;;;9.21;70.13;101052.63;5104826;27;46059;-78
2022/02/04 16:37:27;;;;;;;;;1.50;1.50;;;;;9.14;69.78;101058.41;5093606;27;45466;-78
2022/02/04 16:39:52;;;;;;;;;1.00;1.00;;;;;8.88;69.90;101020.53;5108756;27;45250;-78
2022/02/04 16:42:17;;;;;;;;;1.75;1.75;;;;;8.94;70.26;101060.13;5113582;27;45198;-78
2022/02/04 16:44:43;;;;;;;;;1.00;1.00;;;;;8.79;69.89;101041.97;5113717;27;45976;-78
2022/02/04 16:47:09;;;;;;;;;2.00;2.00;;;;;8.73;69.78;101041.69;5113067;27;44988;-78
2022/02/04 16:49:37;;;;;;;;;1.75;1.00;;;;;8.85;69.31;101075.41;5113006;27;45206;-77
2022/02/04 16:52:05;;;;;;;;;1.00;1.00;;;;;8.61;69.43;101043.72;5113936;27;45270;-78
2022/02/04 16:54:33;;;;;;;;;1.25;1.25;;;;;8.71;69.24;101094.84;5113522;27;45334;-78
2022/02/04 16:57:00;;;;;;;;;1.75;1.00;;;;;8.58;69.12;101085.50;5096821;27;45940;-78
2022/02/04 16:59:27;;;;;;;;;3.00;2.00;;;;;8.44;69.23;101063.00;5093983;27;45138;-77
2022/02/04 17:01:54;;;;;;;;;5.00;3.00;;;;;8.53;69.56;101089.63;5099993;27;45428;-77
2022/02/04 17:04:19;;;;;;;;;0.00;0.00;;;;;8.40;69.19;101088.13;5102635;27;45235;-77
2022/02/04 17:06:48;;;;;;;;;2.75;2.00;;;;;8.40;69.89;101089.84;5101746;27;45123;-77
2022/02/04 17:11:42;;;;;;;;;5.25;4.00;;;;;8.40;69.56;101118.66;5103145;27;45261;-76
2022/02/04 17:14:07;;;;;;;;;3.25;2.50;;;;;8.13;69.70;101094.59;5102239;27;45869;-77
2022/02/04 17:16:33;;;;;;;;;2.75;2.75;;;;;8.39;69.83;101153.53;5102070;27;45372;-77
2022/02/04 17:18:58;;;;;;;;;3.00;2.75;;;;;8.23;69.44;101131.78;5099019;27;45317;-77
2022/02/04 17:21:25;;;;;;;;;5.00;3.75;;;;;8.07;69.63;101110.88;5101614;27;45169;-78
2022/02/04 17:23:53;;;;;;;;;4.00;3.75;;;;;8.31;68.59;101170.53;5095330;27;46642;-77
2022/02/04 17:26:21;;;;;;;;;1.25;1.25;;;;;8.10;68.75;101155.53;5085294;27;45529;-77
2022/02/04 17:28:47;;;;;;;;;3.00;3.00;;;;;8.27;68.84;101185.19;5080267;27;45447;-77
2022/02/04 17:31:13;;;;;;;;;2.75;2.75;;;;;8.04;68.53;101157.84;5086228;27;45506;-77
2022/02/04 17:33:39;;;;;;;;;4.50;3.50;;;;;8.12;68.82;101185.31;5082855;27;45811;-77
2022/02/04 17:36:05;;;;;;;;;3.00;3.00;;;;;8.17;68.47;101198.63;5084665;27;46054;-78
2022/02/04 17:38:30;;;;;;;;;2.75;2.00;;;;;8.15;68.31;101210.75;5081189;27;45988;-78
2022/02/04 17:40:57;;;;;;;;;4.00;4.00;;;;;7.89;68.19;101172.78;5087800;27;45853;-81
2022/02/04 17:43:24;;;;;;;;;4.75;4.75;;;;;8.11;68.67;101211.41;5083364;27;45737;-76
2022/02/04 17:45:49;;;;;;;;;3.00;3.00;;;;;8.07;68.29;101215.59;5083137;27;45583;-78
2022/02/04 17:48:25;;;;;;;;;6.50;5.25;;;;;8.02;68.34;101214.44;5082331;27;45443;-76